• Join FlightAware (Why Join?)
  • Login
  • US Flag 
02:45PM EDT


 

Airport Tracker/Info


-or-


 

Live Flight TrackerFlight Track Log ✈ KAP95 ✈ 30-Jun-2013 ✈ KSTL - KOWB

Flight Track Log - Related Links

Times and Time Zones

All times are in EDT time to prevent confusion due to time zone crossing. See the KAP95 flight status page for this flight to view local times or setup timezone preferences in your user account.

Time Position Orientation Groundspeed Altitude Reporting Facility
EDT Latitude Longitude Course Direction KTS MPH feet Rate Location/Type
07:40PM 38.7833 -90.3667 360° North 100 115 2,500  Level Gateway (St. Louis) TRACON
07:41PM 38.7978 -90.3586 23° Northeast 108 124 2,700 780 Climbing Kansas City Center
07:42PM 38.8122 -90.3242 62° Northeast 108 124 3,700 1,080 Climbing Kansas City Center
07:43PM 38.8283 -90.2878 60° Northeast 103 119 5,000 960 Climbing Kansas City Center
07:44PM 38.8431 -90.2608 55° Northeast 97 112 5,700 480 Climbing Kansas City Center
07:45PM 38.6643 -90.0876 111° Southeast  Level Estimated
07:45PM 38.8581 -90.2311 57° Northeast 97 112 6,000  Level Kansas City Center
07:46PM 38.8728 -90.1917 64° Northeast 109 125 6,000  Level Kansas City Center
07:47PM 38.8753 -90.1406 86° East 131 151 6,000  Level Kansas City Center
07:48PM 38.8789 -90.0903 85° East 139 160 6,000  Level Kansas City Center
07:49PM 38.8653 -90.0419 110° East 148 170 6,000 120 Level Kansas City Center
07:50PM 38.8478 -89.9933 115° Southeast 150 173 6,300 360 Climbing Kansas City Center
07:51PM 38.8294 -89.9394 114° Southeast 141 162 6,800 300 Climbing Kansas City Center
07:52PM 38.8128 -89.8953 116° Southeast 137 158 7,000 60 Climbing Kansas City Center
07:53PM 38.7950 -89.8508 117° Southeast 139 160 7,000  Level Kansas City Center
07:54PM 38.7781 -89.8028 114° Southeast 146 168 7,000  Level Kansas City Center
07:55PM 38.7600 -89.7561 116° Southeast 147 169 7,100  Climbing Kansas City Center
07:56PM 38.7425 -89.7086 115° Southeast 147 169 7,100  Level Kansas City Center
07:57PM 38.7236 -89.6533 114° Southeast 148 170 7,100 -60 Level Kansas City Center
07:58PM 38.7106 -89.5989 107° East 148 170 7,000 -60 Descending Kansas City Center
07:59PM 38.6992 -89.5497 107° East 145 167 7,000  Level Kansas City Center
08:00PM 38.6892 -89.4997 104° East 144 166 7,000  Level Kansas City Center
08:01PM 38.6775 -89.4467 106° East 143 165 7,000  Level Kansas City Center
08:02PM 38.6667 -89.3967 105° East 145 167 7,000  Level Kansas City Center
08:03PM 38.6561 -89.3475 105° East 144 166 7,000  Level Kansas City Center
08:04PM 38.6436 -89.2933 106° East 146 168 7,100  Climbing Kansas City Center
08:05PM 38.6211 -89.2483 123° Southeast 148 170 7,100  Level Kansas City Center
08:06PM 38.5956 -89.2036 126° Southeast 154 177 7,100  Level Kansas City Center
08:07PM 38.5672 -89.1553 127° Southeast 158 182 7,100  Level Kansas City Center
08:09PM 38.5403 -89.1100 127° Southeast 158 182 7,100  Level Kansas City Center
08:10PM 38.5119 -89.0606 126° Southeast 160 184 7,100  Level Kansas City Center
08:11PM 38.4872 -89.0150 125° Southeast 157 181 7,100  Level Kansas City Center
08:12PM 38.4614 -88.9697 126° Southeast 158 182 7,100  Level Kansas City Center
08:13PM 38.4369 -88.9194 122° Southeast 154 177 7,100  Level Kansas City Center
08:14PM 38.4169 -88.8700 117° Southeast 158 182 7,100  Level Kansas City Center
08:15PM 38.3956 -88.8228 120° Southeast 154 177 7,100  Level Kansas City Center
08:16PM 38.3761 -88.7683 114° Southeast 158 182 7,100 -60 Level Kansas City Center
08:17PM 38.3611 -88.7181 111° Southeast 153 176 7,000  Descending Kansas City Center
08:18PM 38.3444 -88.6719 115° Southeast 153 176 7,100  Climbing Kansas City Center
08:19PM 38.3239 -88.6214 117° Southeast 158 182 7,100  Level Kansas City Center
08:20PM 38.3053 -88.5722 116° Southeast 156 180 7,100  Level Kansas City Center
08:21PM 38.2814 -88.5122 117° Southeast 157 181 7,100  Level Kansas City Center
08:22PM 38.2597 -88.4628 119° Southeast 159 183 7,100  Level Kansas City Center
08:23PM 38.2431 -88.4131 113° Southeast 154 177 7,100  Level Kansas City Center
08:24PM 38.2219 -88.3631 118° Southeast 158 182 7,100 -60 Level Kansas City Center
08:25PM 38.2114 -88.3331 114° Southeast 157 181 7,000 -60 Descending Indianapolis Center
08:26PM 38.1925 -88.2825 115° Southeast 157 181 7,000  Level Indianapolis Center
08:27PM 38.1714 -88.2322 118° Southeast 158 182 7,000  Level Indianapolis Center
08:28PM 38.1456 -88.1711 118° Southeast 161 185 7,000  Level Indianapolis Center
08:29PM 38.1261 -88.1211 116° Southeast 160 184 7,000  Level Indianapolis Center
08:30PM 38.1067 -88.0717 117° Southeast 158 182 7,000  Level Indianapolis Center
08:31PM 38.0858 -88.0233 119° Southeast 156 180 7,000  Level Indianapolis Center
08:32PM 38.0664 -87.9739 117° Southeast 156 180 7,000  Level Indianapolis Center
08:33PM 38.0483 -87.9228 114° Southeast 157 181 7,000  Level Indianapolis Center
08:34PM 38.0275 -87.8744 119° Southeast 156 180 7,000 -240 Level Indianapolis Center
08:35PM 38.0061 -87.8225 118° Southeast 162 186 6,600 -420 Descending Indianapolis Center
08:36PM 37.9836 -87.7672 117° Southeast 169 194 6,200 -420 Descending Indianapolis Center
08:37PM 37.9564 -87.7003 117° Southeast 177 204 5,800 -420 Descending Indianapolis Center
08:38PM 37.9339 -87.6456 118° Southeast 175 201 5,400 -420 Descending Indianapolis Center
08:39PM 37.9114 -87.5900 117° Southeast 177 204 5,000 -420 Descending Indianapolis Center
08:40PM 37.8903 -87.5350 116° Southeast 174 200 4,600 -240 Descending Indianapolis Center
08:41PM 37.8686 -87.4814 117° Southeast 174 200 4,600  Level Indianapolis Center